Time;durP1;ratioP1;P1;durP2;ratioP2;P2;SDS_P1;SDS_P2;PMS_P1;PMS_P2;Temp;Humidity;BMP_temperature;BMP_pressure;BME280_temperature;BME280_humidity;BME280_pressure;Samples;Min_cycle;Max_cycle;Signal;HPM_P1;HPM_P2
2021/06/06 00:01:53;;;;;;;45.53;40.67;;;19.70;99.30;;;;;;5030079;28;20705;-50
2021/06/06 00:04:21;;;;;;;44.50;39.77;;;19.80;99.40;;;;;;5030289;28;20721;-50
2021/06/06 00:06:48;;;;;;;48.53;43.37;;;19.80;99.40;;;;;;5030000;28;20654;-50
2021/06/06 00:09:16;;;;;;;47.57;42.23;;;19.80;99.40;;;;;;5030600;28;20704;-50
2021/06/06 00:11:44;;;;;;;46.93;42.20;;;19.70;99.30;;;;;;5030118;28;21029;-49
2021/06/06 00:14:13;;;;;;;48.20;40.47;;;19.70;99.40;;;;;;5030367;28;20974;-49
2021/06/06 00:16:42;;;;;;;44.70;39.90;;;19.70;99.30;;;;;;5029594;28;20700;-49
2021/06/06 00:19:09;;;;;;;42.90;38.23;;;19.70;99.30;;;;;;5029701;28;20684;-50
2021/06/06 00:21:36;;;;;;;44.07;39.37;;;19.70;99.30;;;;;;5030064;28;20653;-50
2021/06/06 00:24:03;;;;;;;48.10;42.50;;;19.80;99.40;;;;;;5029924;28;20716;-49
2021/06/06 00:26:30;;;;;;;47.97;41.73;;;19.80;99.30;;;;;;5029678;28;20693;-50
2021/06/06 00:28:56;;;;;;;50.53;44.80;;;19.70;99.20;;;;;;5030518;28;20704;-49
2021/06/06 00:31:23;;;;;;;48.13;43.00;;;19.60;99.20;;;;;;5029946;28;20620;-50
2021/06/06 00:33:52;;;;;;;49.07;43.87;;;19.60;99.40;;;;;;5029312;28;20639;-49
2021/06/06 00:36:19;;;;;;;51.13;44.37;;;19.60;99.60;;;;;;5029464;28;20615;-49
2021/06/06 00:38:46;;;;;;;49.60;42.87;;;19.60;99.60;;;;;;5029490;28;20682;-49
2021/06/06 00:41:12;;;;;;;50.13;44.80;;;19.60;99.50;;;;;;5029807;28;20666;-49
2021/06/06 00:43:39;;;;;;;45.30;39.97;;;19.60;99.50;;;;;;5029526;28;20716;-50
2021/06/06 00:46:06;;;;;;;49.17;44.00;;;19.60;99.50;;;;;;5029514;28;21170;-50
2021/06/06 00:48:33;;;;;;;52.80;42.53;;;19.60;99.50;;;;;;5029446;28;20631;-49
2021/06/06 00:51:04;;;;;;;47.20;42.40;;;19.60;99.50;;;;;;5029798;28;20635;-49
2021/06/06 00:53:33;;;;;;;49.47;43.80;;;19.60;99.60;;;;;;5029523;28;20659;-49
2021/06/06 00:56:00;;;;;;;53.40;44.33;;;19.60;99.50;;;;;;5029216;28;20631;-49
2021/06/06 00:58:26;;;;;;;52.30;46.83;;;19.60;99.50;;;;;;5029721;28;20635;-49
2021/06/06 01:00:53;;;;;;;58.30;48.47;;;19.60;99.60;;;;;;5029587;28;20663;-50
2021/06/06 01:03:22;;;;;;;50.90;44.53;;;19.50;99.60;;;;;;5029804;28;21004;-50
2021/06/06 01:05:51;;;;;;;51.80;46.20;;;19.50;99.70;;;;;;5029394;28;21021;-50
2021/06/06 01:08:19;;;;;;;55.07;48.90;;;19.50;99.70;;;;;;5030066;28;21132;-49
2021/06/06 01:10:46;;;;;;;56.47;48.90;;;19.50;99.80;;;;;;5029659;28;20619;-49
2021/06/06 01:13:15;;;;;;;53.93;48.43;;;19.50;99.80;;;;;;5029551;28;21059;-50
2021/06/06 01:15:43;;;;;;;59.13;47.73;;;19.50;99.80;;;;;;5029871;28;20849;-50
2021/06/06 01:18:14;;;;;;;57.87;47.83;;;19.50;99.70;;;;;;5029696;28;20625;-49
2021/06/06 01:20:47;;;;;;;61.77;51.77;;;19.60;99.70;;;;;;5029805;28;20663;-49
2021/06/06 01:23:26;;;;;;;55.20;49.20;;;19.60;99.80;;;;;;5029483;28;20717;-49
2021/06/06 01:25:55;;;;;;;58.10;47.00;;;19.50;99.80;;;;;;5029034;28;20746;-50
2021/06/06 01:28:24;;;;;;;57.73;51.13;;;19.50;99.80;;;;;;5029870;28;20606;-49
2021/06/06 01:30:52;;;;;;;59.80;50.73;;;19.50;99.80;;;;;;5029727;28;20623;-49
2021/06/06 01:33:21;;;;;;;59.40;51.90;;;19.50;99.80;;;;;;5029137;28;20655;-49
2021/06/06 01:35:48;;;;;;;60.87;50.80;;;19.50;99.90;;;;;;5029337;28;20968;-50
2021/06/06 01:38:17;;;;;;;61.97;52.27;;;19.50;99.80;;;;;;5029083;28;20631;-49
2021/06/06 01:40:44;;;;;;;64.37;54.30;;;19.50;99.80;;;;;;5029681;28;20650;-49
2021/06/06 01:43:15;;;;;;;66.83;51.20;;;19.50;99.80;;;;;;5032630;28;20962;-49
2021/06/06 01:45:44;;;;;;;62.83;50.57;;;19.50;99.80;;;;;;5032755;28;21028;-48
2021/06/06 01:48:12;;;;;;;58.87;50.07;;;19.60;99.70;;;;;;5032617;28;21183;-49
2021/06/06 01:50:41;;;;;;;59.30;51.83;;;19.60;99.80;;;;;;5032917;28;20692;-49
2021/06/06 01:53:07;;;;;;;57.40;49.60;;;19.60;99.70;;;;;;5032220;28;21074;-49
2021/06/06 01:55:36;;;;;;;64.13;53.67;;;19.60;99.80;;;;;;5032763;28;20618;-49
2021/06/06 01:58:04;;;;;;;57.97;50.70;;;19.50;99.60;;;;;;5032788;28;20685;-48
2021/06/06 02:00:35;;;;;;;61.30;51.67;;;19.50;99.60;;;;;;5032403;28;20692;-48
2021/06/06 02:03:02;;;;;;;60.33;53.83;;;19.50;99.70;;;;;;5032601;28;20706;-50
2021/06/06 02:05:28;;;;;;;64.97;54.23;;;19.50;99.70;;;;;;5032253;28;20631;-50
2021/06/06 02:07:55;;;;;;;59.37;51.97;;;19.50;99.70;;;;;;5032277;28;20627;-50
2021/06/06 02:10:25;;;;;;;61.60;50.47;;;19.50;99.70;;;;;;5031958;28;20634;-49
2021/06/06 02:12:53;;;;;;;62.40;50.60;;;19.50;99.60;;;;;;5032199;28;20659;-48
2021/06/06 02:15:21;;;;;;;57.43;51.30;;;19.50;99.60;;;;;;5032228;28;20631;-49
2021/06/06 02:17:51;;;;;;;60.20;49.27;;;19.50;99.70;;;;;;5031765;28;20627;-50
2021/06/06 02:20:18;;;;;;;66.70;57.53;;;19.40;99.60;;;;;;5031844;28;20716;-50
2021/06/06 02:22:45;;;;;;;61.50;52.97;;;19.40;99.60;;;;;;5032205;28;20717;-49
2021/06/06 02:25:14;;;;;;;63.27;51.73;;;19.40;99.60;;;;;;5032502;28;20668;-49
2021/06/06 02:27:43;;;;;;;61.27;53.30;;;19.30;99.60;;;;;;5031329;28;20630;-50
2021/06/06 02:30:13;;;;;;;61.07;50.87;;;19.20;99.60;;;;;;5032185;28;20627;-49
2021/06/06 02:32:42;;;;;;;61.70;51.83;;;19.20;99.70;;;;;;5031570;28;20741;-50
2021/06/06 02:35:13;;;;;;;66.00;56.00;;;19.20;99.80;;;;;;5031892;28;20893;-50
2021/06/06 02:37:42;;;;;;;63.87;54.77;;;19.20;99.90;;;;;;5031103;28;20980;-49
2021/06/06 02:40:15;;;;;;;67.20;57.57;;;19.10;99.90;;;;;;5031978;28;21429;-49
2021/06/06 02:42:43;;;;;;;63.73;52.70;;;19.10;99.90;;;;;;5031604;28;20694;-50
2021/06/06 02:45:11;;;;;;;66.50;56.03;;;19.10;99.90;;;;;;5031984;28;20975;-49
2021/06/06 02:47:39;;;;;;;64.73;54.80;;;19.10;99.90;;;;;;5031671;28;20619;-49
2021/06/06 02:50:07;;;;;;;65.37;54.73;;;19.10;99.90;;;;;;5024541;28;20692;-49
2021/06/06 02:52:41;;;;;;;68.10;54.73;;;19.10;99.90;;;;;;5030935;28;20634;-49
2021/06/06 02:55:11;;;;;;;65.67;56.50;;;19.10;99.90;;;;;;5031779;28;20654;-50
2021/06/06 02:57:37;;;;;;;72.77;55.80;;;19.20;99.90;;;;;;5030824;28;20623;-50
2021/06/06 03:00:06;;;;;;;70.17;57.67;;;19.20;99.90;;;;;;5031671;28;20680;-49
2021/06/06 03:02:36;;;;;;;73.87;57.47;;;19.20;99.90;;;;;;5031158;28;20627;-49
2021/06/06 03:05:03;;;;;;;66.70;58.70;;;19.20;99.90;;;;;;5031275;28;20685;-49
2021/06/06 03:07:31;;;;;;;69.13;57.83;;;19.20;99.90;;;;;;5030795;28;21047;-49
2021/06/06 03:09:59;;;;;;;71.63;57.00;;;19.20;99.90;;;;;;5031004;28;20985;-49
2021/06/06 03:12:26;;;;;;;64.63;53.57;;;19.20;99.90;;;;;;5031110;28;20688;-49
2021/06/06 03:14:53;;;;;;;76.60;59.90;;;19.20;99.90;;;;;;5030464;28;20623;-49
2021/06/06 03:17:23;;;;;;;75.93;57.57;;;19.10;99.90;;;;;;5030554;28;20619;-49
2021/06/06 03:19:52;;;;;;;63.83;56.87;;;19.20;99.90;;;;;;5031078;28;21029;-49
2021/06/06 03:22:19;;;;;;;67.53;58.67;;;19.20;99.70;;;;;;5030951;28;20627;-49
2021/06/06 03:24:48;;;;;;;75.00;58.77;;;19.10;99.60;;;;;;5030446;28;20627;-48
2021/06/06 03:27:16;;;;;;;69.27;53.33;;;19.10;99.60;;;;;;5030688;28;20797;-49
2021/06/06 03:30:02;;;;;;;69.63;58.50;;;19.10;99.60;;;;;;5031045;28;20696;-49
2021/06/06 03:32:30;;;;;;;67.47;58.07;;;19.10;99.60;;;;;;5030480;28;20701;-49
2021/06/06 03:34:57;;;;;;;67.47;55.03;;;19.10;99.60;;;;;;5030337;28;21176;-49
2021/06/06 03:37:24;;;;;;;67.73;57.80;;;19.10;99.60;;;;;;5030253;28;20698;-50
2021/06/06 03:39:51;;;;;;;61.27;51.43;;;19.10;99.90;;;;;;5030935;28;20726;-50
2021/06/06 03:42:19;;;;;;;69.50;57.67;;;19.10;99.50;;;;;;5030657;28;20659;-49
2021/06/06 03:44:46;;;;;;;64.63;52.93;;;19.20;99.50;;;;;;5030345;28;20623;-50
2021/06/06 03:47:12;;;;;;;67.80;55.33;;;19.20;99.50;;;;;;5030331;28;21129;-50
2021/06/06 03:49:39;;;;;;;68.10;58.00;;;19.20;99.50;;;;;;5030068;28;20627;-50
2021/06/06 03:52:06;;;;;;;58.07;51.77;;;19.20;99.40;;;;;;5030825;28;20977;-51
2021/06/06 03:54:33;;;;;;;69.13;55.17;;;19.20;99.30;;;;;;5029988;28;21280;-49
2021/06/06 03:57:00;;;;;;;56.07;49.97;;;19.20;99.20;;;;;;5030255;28;20840;-50
2021/06/06 03:59:28;;;;;;;61.67;52.70;;;19.20;99.20;;;;;;5030490;28;20669;-49
2021/06/06 04:01:55;;;;;;;56.60;50.50;;;19.20;99.20;;;;;;5030471;28;20651;-50
2021/06/06 04:04:21;;;;;;;62.03;51.20;;;19.20;99.20;;;;;;5029789;28;20762;-50
2021/06/06 04:06:48;;;;;;;58.30;50.57;;;19.20;99.20;;;;;;5029598;28;20677;-49
2021/06/06 04:09:15;;;;;;;51.20;45.83;;;19.30;99.30;;;;;;5029889;28;20623;-49
2021/06/06 04:11:42;;;;;;;54.03;48.27;;;19.30;99.10;;;;;;5029746;28;20708;-49
2021/06/06 04:14:08;;;;;;;55.40;49.43;;;19.30;99.00;;;;;;5030068;28;20658;-50
2021/06/06 04:16:37;;;;;;;57.20;49.67;;;19.30;98.90;;;;;;5028944;28;20646;-50
2021/06/06 04:19:03;;;;;;;57.37;50.10;;;19.30;98.90;;;;;;5030396;28;20661;-49
2021/06/06 04:21:31;;;;;;;54.07;48.17;;;19.30;98.90;;;;;;5029996;28;21078;-50
2021/06/06 04:23:58;;;;;;;55.23;48.50;;;19.30;98.90;;;;;;5030275;28;20650;-50
2021/06/06 04:26:25;;;;;;;52.97;47.47;;;19.30;99.00;;;;;;5029646;28;21183;-50
2021/06/06 04:28:52;;;;;;;52.33;46.80;;;19.30;98.90;;;;;;5029999;28;20673;-50
2021/06/06 04:31:19;;;;;;;50.60;45.20;;;19.30;98.80;;;;;;5030232;28;20773;-49
2021/06/06 04:33:47;;;;;;;52.10;46.70;;;19.30;98.80;;;;;;5029664;28;20662;-50
2021/06/06 04:36:14;;;;;;;49.70;44.50;;;19.30;98.80;;;;;;5029642;28;21192;-50
2021/06/06 04:38:41;;;;;;;49.50;44.43;;;19.20;98.70;;;;;;5029846;28;20693;-49
2021/06/06 04:41:10;;;;;;;47.80;42.77;;;19.20;98.70;;;;;;5028736;28;20728;-49
2021/06/06 04:43:37;;;;;;;51.50;46.20;;;19.20;98.90;;;;;;5027909;28;20720;-49
2021/06/06 04:46:03;;;;;;;47.80;42.50;;;19.20;98.80;;;;;;5029447;28;20712;-50
2021/06/06 04:48:31;;;;;;;47.27;42.37;;;19.20;98.70;;;;;;5029428;28;20661;-49
2021/06/06 04:51:01;;;;;;;48.10;43.37;;;19.20;98.60;;;;;;5029546;28;20915;-49
2021/06/06 04:53:28;;;;;;;45.60;40.90;;;19.20;98.60;;;;;;5029398;28;21164;-49
2021/06/06 04:55:56;;;;;;;45.20;40.30;;;19.20;98.80;;;;;;5029174;28;20635;-50
2021/06/06 04:58:23;;;;;;;47.77;42.90;;;19.20;98.50;;;;;;5029321;28;20611;-49
2021/06/06 05:00:51;;;;;;;44.30;39.27;;;19.20;98.50;;;;;;5029542;28;20655;-49
2021/06/06 05:03:18;;;;;;;44.47;39.93;;;19.20;98.50;;;;;;5029091;28;20717;-49
2021/06/06 05:05:45;;;;;;;45.57;40.80;;;19.20;98.50;;;;;;5029461;28;21144;-49
2021/06/06 05:08:15;;;;;;;43.30;38.70;;;19.20;98.40;;;;;;5029619;28;20663;-49
2021/06/06 05:10:43;;;;;;;44.43;39.80;;;19.20;98.30;;;;;;5029382;28;21162;-49
2021/06/06 05:13:10;;;;;;;45.53;40.90;;;19.20;98.30;;;;;;5009848;28;21172;-49
2021/06/06 05:15:37;;;;;;;45.53;40.93;;;19.20;98.40;;;;;;5021144;28;21179;-49
2021/06/06 05:18:04;;;;;;;42.17;37.97;;;19.20;98.40;;;;;;5032182;28;20627;-49
2021/06/06 05:20:34;;;;;;;45.13;40.60;;;19.20;98.30;;;;;;5033341;28;21122;-50
2021/06/06 05:23:01;;;;;;;43.00;38.70;;;19.20;98.30;;;;;;5033457;28;20797;-50
2021/06/06 05:25:29;;;;;;;43.87;39.17;;;19.20;98.30;;;;;;5032949;28;20716;-50
2021/06/06 05:27:56;;;;;;;45.33;40.57;;;19.20;98.20;;;;;;5032026;28;20623;-50
2021/06/06 05:30:24;;;;;;;40.17;36.10;;;19.20;98.20;;;;;;5032966;28;20631;-50
2021/06/06 05:32:52;;;;;;;41.57;37.40;;;19.30;98.20;;;;;;5032531;28;20646;-50
2021/06/06 05:35:19;;;;;;;42.40;38.00;;;19.30;98.10;;;;;;5033191;28;20653;-50
2021/06/06 05:37:45;;;;;;;43.73;39.20;;;19.30;98.00;;;;;;5032662;28;20631;-50
2021/06/06 05:40:13;;;;;;;41.17;37.20;;;19.30;97.90;;;;;;5033134;28;21140;-50
2021/06/06 05:42:41;;;;;;;38.20;34.50;;;19.30;97.80;;;;;;5033160;28;20974;-50
2021/06/06 05:45:08;;;;;;;37.47;33.57;;;19.30;97.60;;;;;;5033549;28;20696;-50
2021/06/06 05:47:35;;;;;;;36.63;32.83;;;19.30;97.70;;;;;;5031717;28;20693;-50
2021/06/06 05:50:02;;;;;;;36.63;32.87;;;19.40;97.50;;;;;;5033072;28;20673;-50
2021/06/06 05:52:32;;;;;;;36.87;33.20;;;19.30;97.40;;;;;;5032528;28;21248;-50
2021/06/06 05:54:59;;;;;;;34.97;31.53;;;19.30;97.40;;;;;;5032516;28;20619;-50
2021/06/06 05:57:26;;;;;;;33.93;29.53;;;19.30;97.40;;;;;;5032575;28;20667;-49
2021/06/06 05:59:54;;;;;;;33.93;30.53;;;19.30;97.40;;;;;;5031993;28;20685;-49
2021/06/06 06:02:20;;;;;;;35.40;31.70;;;19.30;97.40;;;;;;5032053;28;20716;-49
2021/06/06 06:04:47;;;;;;;34.07;30.77;;;19.30;97.40;;;;;;5032548;28;20639;-49
2021/06/06 06:07:15;;;;;;;31.50;28.23;;;19.30;97.50;;;;;;5032058;28;20617;-49
2021/06/06 06:09:42;;;;;;;34.90;31.40;;;19.40;97.50;;;;;;5032445;28;20664;-49
2021/06/06 06:12:09;;;;;;;31.20;28.20;;;19.40;97.40;;;;;;5032077;28;21136;-49
2021/06/06 06:14:36;;;;;;;33.17;29.57;;;19.40;97.30;;;;;;5031771;28;20662;-49
2021/06/06 06:17:04;;;;;;;29.50;26.47;;;19.40;97.30;;;;;;5031964;28;20635;-50
2021/06/06 06:19:31;;;;;;;29.83;26.93;;;19.40;97.20;;;;;;5032311;28;21203;-49
2021/06/06 06:21:58;;;;;;;29.73;26.80;;;19.40;97.10;;;;;;5031984;28;20659;-49
2021/06/06 06:24:24;;;;;;;29.30;26.10;;;19.50;97.10;;;;;;5032436;28;21007;-49
2021/06/06 06:26:52;;;;;;;29.50;26.30;;;19.40;97.00;;;;;;5031656;28;20627;-48
2021/06/06 06:29:19;;;;;;;30.00;26.80;;;19.40;97.00;;;;;;5031385;28;20623;-49
2021/06/06 06:31:46;;;;;;;29.13;26.33;;;19.40;96.90;;;;;;5031845;28;20691;-48
2021/06/06 06:34:14;;;;;;;28.30;25.30;;;19.40;97.00;;;;;;5031376;28;20694;-49
2021/06/06 06:36:42;;;;;;;28.43;25.33;;;19.40;97.10;;;;;;5031757;28;21183;-50
2021/06/06 06:39:09;;;;;;;29.30;26.53;;;19.40;97.00;;;;;;5029656;28;21074;-50
2021/06/06 06:41:36;;;;;;;29.23;26.40;;;19.40;97.00;;;;;;5051801;28;20997;-50
2021/06/06 06:44:02;;;;;;;25.13;22.53;;;19.50;97.10;;;;;;5035473;28;20712;-49
2021/06/06 06:46:29;;;;;;;27.80;25.03;;;19.50;97.00;;;;;;5031860;28;20983;-50
2021/06/06 06:48:56;;;;;;;27.83;24.90;;;19.40;96.80;;;;;;5031319;28;21127;-48
2021/06/06 06:51:26;;;;;;;27.17;24.33;;;19.40;96.90;;;;;;5031813;28;20674;-50
2021/06/06 06:53:54;;;;;;;28.17;25.47;;;19.40;97.10;;;;;;5031475;28;21037;-48
2021/06/06 06:56:23;;;;;;;28.67;25.77;;;19.50;97.00;;;;;;5031163;28;20673;-49
2021/06/06 06:58:50;;;;;;;26.60;24.07;;;19.50;96.90;;;;;;5030985;28;20950;-49
2021/06/06 07:01:17;;;;;;;28.83;26.00;;;19.50;96.90;;;;;;5030935;28;20655;-49
2021/06/06 07:03:44;;;;;;;29.70;26.73;;;19.60;96.90;;;;;;5031109;28;20754;-49
2021/06/06 07:06:11;;;;;;;27.63;24.97;;;19.60;96.70;;;;;;5031208;28;20639;-49
2021/06/06 07:08:40;;;;;;;28.77;25.87;;;19.50;96.60;;;;;;5031097;28;20961;-50
2021/06/06 07:11:08;;;;;;;25.97;23.30;;;19.50;96.80;;;;;;5031947;28;20627;-49
2021/06/06 07:13:35;;;;;;;27.83;24.57;;;19.60;96.80;;;;;;5029962;28;20971;-50
2021/06/06 07:16:02;;;;;;;27.20;24.23;;;19.60;96.80;;;;;;5030096;28;20639;-50
2021/06/06 07:18:28;;;;;;;28.70;25.83;;;19.70;96.90;;;;;;5031675;28;21183;-49
2021/06/06 07:20:57;;;;;;;25.77;23.37;;;19.70;96.80;;;;;;5031252;28;20635;-50
2021/06/06 07:23:25;;;;;;;27.33;24.40;;;19.70;96.70;;;;;;5031369;28;20659;-50
2021/06/06 07:25:54;;;;;;;27.07;24.43;;;19.80;96.70;;;;;;5041052;28;20626;-49
2021/06/06 07:28:22;;;;;;;27.63;24.83;;;19.80;96.70;;;;;;5050577;28;20630;-50
2021/06/06 07:30:50;;;;;;;25.80;23.17;;;19.80;96.70;;;;;;5034269;28;20623;-49
2021/06/06 07:33:19;;;;;;;29.97;26.97;;;19.80;96.70;;;;;;5030548;28;21219;-50
2021/06/06 07:35:45;;;;;;;29.67;26.67;;;19.80;96.70;;;;;;5030455;28;20631;-49
2021/06/06 07:38:12;;;;;;;29.17;25.07;;;19.90;96.50;;;;;;5030927;28;20623;-48
2021/06/06 07:40:41;;;;;;;29.40;25.73;;;19.90;96.30;;;;;;5030468;28;20626;-49
2021/06/06 07:43:09;;;;;;;28.23;25.27;;;19.90;96.20;;;;;;5048924;28;20727;-49
2021/06/06 07:45:36;;;;;;;30.47;27.40;;;20.00;96.10;;;;;;5041110;28;20645;-49
2021/06/06 07:48:04;;;;;;;27.53;24.87;;;20.00;95.90;;;;;;5030156;28;20675;-50
2021/06/06 07:50:33;;;;;;;28.30;24.80;;;20.10;95.70;;;;;;5030022;28;20673;-50
2021/06/06 07:52:59;;;;;;;28.27;25.27;;;20.10;95.50;;;;;;5048703;28;20650;-50
2021/06/06 07:55:27;;;;;;;30.00;27.00;;;20.10;95.40;;;;;;5044004;28;20635;-50
2021/06/06 07:57:53;;;;;;;30.23;25.90;;;20.20;95.30;;;;;;5030093;28;20627;-50
2021/06/06 08:00:23;;;;;;;29.50;26.40;;;20.20;95.10;;;;;;5029048;28;21152;-49
2021/06/06 08:02:50;;;;;;;29.13;24.83;;;20.20;95.20;;;;;;5030136;28;20713;-50
2021/06/06 08:05:17;;;;;;;26.40;23.90;;;20.20;95.10;;;;;;5030247;28;20631;-49
2021/06/06 08:07:50;;;;;;;25.00;22.10;;;20.30;95.10;;;;;;5029724;28;21239;-51
2021/06/06 08:10:44;;;;;;;23.60;21.40;;;20.30;94.90;;;;;;5030248;28;20607;-50
2021/06/06 08:13:11;;;;;;;27.03;22.50;;;20.30;94.60;;;;;;5029359;28;20651;-49
2021/06/06 08:15:40;;;;;;;26.20;23.53;;;20.30;94.80;;;;;;5029596;28;20622;-49
2021/06/06 08:18:08;;;;;;;22.57;20.17;;;20.30;94.70;;;;;;5027871;28;20635;-49
2021/06/06 08:20:37;;;;;;;23.33;20.93;;;20.30;94.50;;;;;;5028914;28;21257;-49
2021/06/06 08:23:04;;;;;;;24.50;20.37;;;20.40;94.60;;;;;;5030051;28;20671;-50
2021/06/06 08:25:31;;;;;;;23.80;21.27;;;20.40;94.60;;;;;;5028874;28;20705;-49
2021/06/06 08:27:58;;;;;;;22.50;20.43;;;20.50;94.60;;;;;;5042366;28;20618;-50
2021/06/06 08:30:26;;;;;;;19.50;17.57;;;20.50;94.50;;;;;;5047964;28;20958;-50
2021/06/06 08:32:54;;;;;;;21.30;19.20;;;20.60;94.30;;;;;;5032664;28;20659;-50
2021/06/06 08:35:21;;;;;;;21.40;18.47;;;20.60;94.30;;;;;;5029605;28;21226;-50
2021/06/06 08:37:48;;;;;;;21.00;18.90;;;20.60;94.40;;;;;;5030072;28;20777;-49
2021/06/06 08:40:22;;;;;;;20.23;17.77;;;20.60;94.40;;;;;;5029527;28;20666;-49
2021/06/06 08:42:49;;;;;;;19.63;17.63;;;20.70;94.20;;;;;;5033302;28;20727;-49
2021/06/06 08:45:22;;;;;;;17.40;15.80;;;20.80;94.10;;;;;;5042724;28;20626;-51
2021/06/06 08:47:49;;;;;;;18.87;16.87;;;20.80;94.10;;;;;;5029421;28;20634;-50
2021/06/06 08:50:19;;;;;;;18.67;17.10;;;20.80;94.10;;;;;;5029821;28;20681;-50
2021/06/06 08:52:49;;;;;;;17.90;16.00;;;20.80;94.10;;;;;;5033254;28;20730;-50
2021/06/06 08:55:32;;;;;;;17.50;15.80;;;20.90;93.90;;;;;;5033284;28;21247;-50
2021/06/06 08:58:03;;;;;;;16.20;14.57;;;20.90;93.60;;;;;;5033284;28;21265;-50
2021/06/06 09:00:32;;;;;;;15.87;14.30;;;20.90;93.80;;;;;;5033824;28;20661;-50
2021/06/06 09:03:02;;;;;;;16.70;15.10;;;20.90;93.90;;;;;;5033126;28;20732;-51
2021/06/06 09:05:32;;;;;;;16.50;13.87;;;21.00;93.80;;;;;;5039549;28;20683;-50
2021/06/06 09:07:59;;;;;;;14.30;13.00;;;21.00;93.50;;;;;;5052864;28;20622;-50
2021/06/06 09:10:27;;;;;;;15.30;13.90;;;21.00;93.40;;;;;;5052950;28;20625;-50
2021/06/06 09:12:55;;;;;;;14.67;13.33;;;20.90;93.40;;;;;;5053131;28;20654;-50
2021/06/06 09:15:23;;;;;;;12.60;10.30;;;20.90;93.50;;;;;;5045176;28;20623;-50
2021/06/06 09:17:53;;;;;;;12.43;11.30;;;20.90;93.70;;;;;;5032975;28;20626;-49
2021/06/06 09:20:27;;;;;;;11.93;10.77;;;20.90;93.70;;;;;;5032972;28;20695;-49
2021/06/06 09:23:08;;;;;;;12.87;11.70;;;20.90;93.70;;;;;;5032834;28;20702;-49
2021/06/06 09:25:37;;;;;;;13.07;11.97;;;20.90;93.50;;;;;;5032360;28;20634;-50
2021/06/06 09:28:05;;;;;;;12.43;11.20;;;20.90;93.50;;;;;;5032476;28;20659;-49
2021/06/06 09:30:32;;;;;;;13.07;11.90;;;20.90;93.50;;;;;;5032886;28;20643;-49
2021/06/06 09:33:11;;;;;;;12.23;11.20;;;20.90;93.40;;;;;;5032785;28;20650;-49
2021/06/06 09:35:39;;;;;;;11.83;10.83;;;20.90;93.40;;;;;;5033195;28;21203;-49
2021/06/06 09:38:14;;;;;;;11.97;10.87;;;20.90;93.20;;;;;;5032659;28;20670;-50
2021/06/06 09:40:45;;;;;;;11.27;10.23;;;20.90;93.10;;;;;;5033049;28;20669;-50
2021/06/06 09:43:25;;;;;;;12.23;11.20;;;20.90;93.20;;;;;;5032635;28;20698;-49
2021/06/06 09:45:52;;;;;;;10.43;9.53;;;20.90;93.20;;;;;;5032223;28;20681;-50
2021/06/06 09:48:26;;;;;;;11.73;10.70;;;21.00;93.30;;;;;;5032435;28;20666;-49
2021/06/06 09:50:54;;;;;;;11.60;10.57;;;21.00;93.30;;;;;;5032341;28;20657;-49
2021/06/06 09:53:27;;;;;;;11.30;10.23;;;21.10;93.10;;;;;;5032705;28;21215;-50
2021/06/06 09:56:05;;;;;;;11.97;10.87;;;21.10;92.90;;;;;;5032201;28;20723;-49
2021/06/06 09:58:33;;;;;;;10.53;9.57;;;21.20;93.10;;;;;;5031864;28;20677;-49
2021/06/06 10:01:02;;;;;;;9.53;8.73;;;21.20;92.50;;;;;;5032408;28;20654;-49
2021/06/06 10:03:32;;;;;;;10.93;10.03;;;21.30;92.70;;;;;;5031513;28;20701;-49
2021/06/06 10:06:17;;;;;;;11.37;10.37;;;21.40;93.00;;;;;;5032018;28;20712;-49
2021/06/06 10:08:55;;;;;;;10.60;9.60;;;21.40;92.50;;;;;;5032217;28;20639;-49
2021/06/06 10:11:22;;;;;;;11.10;10.20;;;21.50;92.10;;;;;;5032844;28;20638;-49
2021/06/06 10:13:50;;;;;;;10.87;9.87;;;21.40;91.90;;;;;;5031559;28;20675;-49
2021/06/06 10:16:17;;;;;;;10.20;9.30;;;21.40;92.00;;;;;;5031831;28;20665;-49
2021/06/06 10:18:45;;;;;;;9.83;8.70;;;21.40;92.30;;;;;;5032241;28;20667;-50
2021/06/06 10:21:15;;;;;;;9.30;8.50;;;21.40;92.40;;;;;;5031540;28;20666;-49
2021/06/06 10:23:42;;;;;;;11.40;10.40;;;21.40;92.40;;;;;;5031972;28;20806;-50
2021/06/06 10:26:14;;;;;;;9.87;8.97;;;21.30;92.30;;;;;;5031711;28;21221;-50
2021/06/06 10:28:44;;;;;;;8.50;7.80;;;21.30;92.40;;;;;;5032661;28;20658;-49
2021/06/06 10:31:13;;;;;;;9.40;8.43;;;21.40;92.40;;;;;;5032487;28;20699;-51
2021/06/06 10:33:42;;;;;;;8.70;7.83;;;21.30;92.40;;;;;;5031792;28;21047;-51
2021/06/06 10:36:09;;;;;;;8.80;8.10;;;21.30;92.60;;;;;;5032112;28;20670;-49
2021/06/06 10:38:38;;;;;;;9.90;8.90;;;21.40;92.80;;;;;;5031944;28;20626;-51
2021/06/06 10:41:12;;;;;;;9.33;8.53;;;21.60;93.10;;;;;;5031634;28;20669;-51
2021/06/06 10:43:49;;;;;;;8.50;7.90;;;21.70;92.50;;;;;;5031350;28;20698;-50
2021/06/06 10:46:19;;;;;;;8.53;7.83;;;22.00;92.20;;;;;;5031039;28;21028;-50
2021/06/06 10:48:47;;;;;;;11.00;8.70;;;22.10;91.60;;;;;;5031433;28;20693;-49
2021/06/06 10:51:17;;;;;;;7.40;6.80;;;22.20;91.30;;;;;;5031180;28;20674;-49
2021/06/06 10:53:53;;;;;;;8.07;7.37;;;22.30;91.00;;;;;;5031719;28;20674;-50
2021/06/06 10:56:37;;;;;;;7.80;7.20;;;22.30;90.80;;;;;;5031516;28;20665;-50
2021/06/06 10:59:05;;;;;;;9.27;8.47;;;22.30;91.00;;;;;;5031584;28;21022;-50
2021/06/06 11:01:48;;;;;;;7.13;6.50;;;22.30;90.60;;;;;;5031923;28;21262;-50
2021/06/06 11:04:17;;;;;;;8.43;7.63;;;22.40;90.60;;;;;;5029780;28;21025;-50
2021/06/06 11:06:47;;;;;;;7.50;7.00;;;22.30;90.50;;;;;;5031205;28;20658;-50
2021/06/06 11:09:22;;;;;;;7.83;7.20;;;22.30;90.70;;;;;;5031263;28;20701;-50
2021/06/06 11:11:57;;;;;;;7.77;7.17;;;22.20;90.90;;;;;;5031593;28;20662;-49
2021/06/06 11:14:32;;;;;;;6.40;5.90;;;22.20;90.90;;;;;;5031233;28;20677;-49
2021/06/06 11:17:10;;;;;;;6.80;6.30;;;22.10;91.10;;;;;;5030022;28;20658;-50
2021/06/06 11:19:37;;;;;;;6.90;6.40;;;22.10;91.50;;;;;;5031043;28;20665;-50
2021/06/06 11:22:32;;;;;;;7.03;6.47;;;22.00;91.40;;;;;;5030913;28;20667;-50
2021/06/06 11:24:59;;;;;;;6.80;5.73;;;22.00;91.50;;;;;;4995772;28;20659;-49
2021/06/06 11:27:31;;;;;;;6.80;6.20;;;22.00;91.30;;;;;;5030332;28;20697;-50
2021/06/06 11:30:08;;;;;;;6.33;5.83;;;22.10;91.30;;;;;;5031079;28;20638;-50
2021/06/06 11:32:39;;;;;;;7.40;6.70;;;22.10;91.30;;;;;;5030505;28;20646;-49
2021/06/06 11:35:29;;;;;;;8.30;7.60;;;22.10;91.20;;;;;;5030870;28;20647;-49
2021/06/06 11:37:56;;;;;;;7.30;6.80;;;22.20;91.10;;;;;;5030588;28;21191;-50
2021/06/06 11:40:33;;;;;;;8.37;7.67;;;22.20;91.10;;;;;;5029834;28;20651;-50
2021/06/06 11:43:09;;;;;;;5.83;5.43;;;22.10;91.00;;;;;;5030610;28;20702;-50
2021/06/06 11:45:37;;;;;;;6.80;6.30;;;22.10;91.10;;;;;;5030436;28;20642;-50
2021/06/06 11:48:07;;;;;;;7.40;6.70;;;22.00;91.10;;;;;;5030229;28;20695;-50
2021/06/06 11:50:35;;;;;;;7.13;6.53;;;22.10;91.30;;;;;;5030618;28;20667;-50
2021/06/06 11:53:04;;;;;;;6.40;5.80;;;22.10;91.50;;;;;;5030215;28;20647;-49
2021/06/06 11:55:33;;;;;;;6.40;5.90;;;22.00;91.40;;;;;;5029977;28;20764;-50
2021/06/06 11:58:07;;;;;;;6.30;5.70;;;22.10;91.40;;;;;;5030041;28;20681;-49
2021/06/06 12:00:36;;;;;;;6.07;5.07;;;22.00;91.50;;;;;;5030113;28;20661;-50
2021/06/06 12:03:10;;;;;;;6.00;5.40;;;22.10;91.40;;;;;;5029363;28;20983;-50
2021/06/06 12:05:37;;;;;;;9.17;8.37;;;22.10;91.30;;;;;;5029862;28;20658;-50
2021/06/06 12:08:08;;;;;;;7.63;7.03;;;22.10;91.20;;;;;;5028204;28;20681;-50
2021/06/06 12:10:37;;;;;;;7.73;6.30;;;22.10;91.10;;;;;;5029920;28;21148;-50
2021/06/06 12:13:06;;;;;;;5.90;5.40;;;22.10;91.10;;;;;;5030007;28;20647;-50
2021/06/06 12:15:34;;;;;;;6.40;5.80;;;22.20;90.90;;;;;;5029556;28;20654;-51
2021/06/06 12:18:03;;;;;;;7.10;5.87;;;22.20;90.60;;;;;;5029076;28;20681;-50
2021/06/06 12:20:30;;;;;;;7.10;6.50;;;22.20;90.50;;;;;;5029512;28;20651;-51
2021/06/06 12:23:05;;;;;;;7.03;6.50;;;22.20;90.20;;;;;;5027518;28;20706;-51
2021/06/06 12:25:31;;;;;;;8.27;7.57;;;22.20;90.00;;;;;;5029599;28;20657;-50
2021/06/06 12:28:04;;;;;;;7.23;5.87;;;22.30;90.10;;;;;;5028917;28;20669;-50
2021/06/06 12:30:34;;;;;;;6.97;6.40;;;22.40;90.10;;;;;;5016779;28;20666;-50
2021/06/06 12:33:05;;;;;;;6.90;6.40;;;22.40;90.10;;;;;;5025123;28;20820;-50
2021/06/06 12:35:38;;;;;;;7.07;6.40;;;22.50;90.10;;;;;;5029375;28;20638;-50
2021/06/06 12:38:05;;;;;;;6.90;6.30;;;22.60;90.00;;;;;;5029990;28;20737;-49
2021/06/06 12:40:36;;;;;;;6.87;6.37;;;22.60;90.00;;;;;;5027883;28;20667;-50